Time;durP1;ratioP1;P1;durP2;ratioP2;P2;SDS_P1;SDS_P2;PMS_P1;PMS_P2;Temp;Humidity;BMP_temperature;BMP_pressure;BME280_temperature;BME280_humidity;BME280_pressure;Samples;Min_cycle;Max_cycle;Signal;HPM_P1;HPM_P2
2024/01/02 00:00:21;;;;;;;;;3.75;2.50;;;;;7.07;95.74;99833.34;4893314;29;11612;-67
2024/01/02 00:02:48;;;;;;;;;6.00;3.50;;;;;6.99;96.34;99825.47;4891844;29;10959;-66
2024/01/02 00:05:15;;;;;;;;;7.00;5.50;;;;;6.99;97.27;99810.25;4891043;29;10866;-67
2024/01/02 00:07:42;;;;;;;;;5.00;5.00;;;;;6.99;96.97;99804.91;4888192;29;10905;-67
2024/01/02 00:10:08;;;;;;;;;8.25;5.00;;;;;7.02;96.84;99809.03;4892443;29;11031;-66
2024/01/02 00:12:35;;;;;;;;;6.25;3.00;;;;;7.02;96.68;99799.16;4892205;29;10862;-68
2024/01/02 00:15:02;;;;;;;;;7.25;5.75;;;;;6.98;97.66;99794.41;4909173;29;10873;-66
2024/01/02 00:17:28;;;;;;;;;7.00;5.00;;;;;6.94;97.55;99776.06;4893617;29;10898;-66
2024/01/02 00:19:55;;;;;;;;;2.00;2.00;;;;;6.98;98.37;99767.66;4889141;29;11656;-66
2024/01/02 00:22:22;;;;;;;;;4.00;4.00;;;;;7.00;98.41;99752.22;4892182;29;11373;-67
2024/01/02 00:24:48;;;;;;;;;4.50;4.50;;;;;7.00;98.04;99739.66;4891675;29;11643;-63
2024/01/02 00:27:15;;;;;;;;;6.25;3.00;;;;;7.06;97.95;99741.56;4891573;29;11122;-67
2024/01/02 00:29:41;;;;;;;;;3.50;3.50;;;;;7.04;97.84;99727.53;4907200;29;10867;-67
2024/01/02 00:32:08;;;;;;;;;5.00;5.00;;;;;7.07;97.81;99716.44;4890871;29;11003;-67
2024/01/02 00:34:35;;;;;;;;;5.00;4.00;;;;;7.05;97.84;99704.28;4906615;29;10816;-66
2024/01/02 00:37:01;;;;;;;;;5.00;3.00;;;;;6.99;98.35;99697.88;4888069;29;10795;-67
2024/01/02 00:39:28;;;;;;;;;5.00;5.00;;;;;7.06;98.30;99685.34;4890583;29;11101;-67
2024/01/02 00:41:55;;;;;;;;;5.75;5.50;;;;;7.05;98.42;99682.88;4885597;29;10962;-68
2024/01/02 00:44:21;;;;;;;;;8.00;4.50;;;;;7.07;98.36;99664.78;4891775;29;10869;-65
2024/01/02 00:46:48;;;;;;;;;7.00;5.00;;;;;7.14;98.43;99660.28;4895714;29;10937;-64
2024/01/02 00:49:14;;;;;;;;;5.50;3.50;;;;;6.99;98.18;99654.25;4890798;29;10794;-68
2024/01/02 00:51:41;;;;;;;;;5.25;3.50;;;;;7.01;99.06;99644.16;4889888;29;11043;-68
2024/01/02 00:54:08;;;;;;;;;5.25;4.00;;;;;7.03;99.43;99615.38;4906844;29;10807;-66
2024/01/02 00:56:34;;;;;;;;;7.50;4.50;;;;;6.99;98.84;99611.44;4894191;29;10833;-67
2024/01/02 00:59:01;;;;;;;;;4.00;2.50;;;;;7.03;99.27;99597.47;4889117;29;11502;-67
2024/01/02 01:01:28;;;;;;;;;8.50;5.00;;;;;6.94;98.88;99586.13;4891405;29;11566;-66
2024/01/02 01:03:55;;;;;;;;;3.50;3.50;;;;;6.94;99.49;99583.44;4893239;29;11557;-67
2024/01/02 01:06:21;;;;;;;;;5.00;5.00;;;;;6.94;99.20;99572.75;4890041;29;10864;-67
2024/01/02 01:08:48;;;;;;;;;4.75;4.75;;;;;6.94;100.00;99562.03;4892060;29;11003;-66
2024/01/02 01:11:15;;;;;;;;;3.50;3.50;;;;;6.93;99.99;99543.53;4886511;29;11514;-67
2024/01/02 01:13:41;;;;;;;;;4.75;4.75;;;;;7.03;99.76;99541.28;4908893;29;10795;-67
2024/01/02 01:16:08;;;;;;;;;3.50;3.50;;;;;7.03;100.00;99525.22;4890344;29;10921;-67
2024/01/02 01:18:34;;;;;;;;;3.50;3.50;;;;;7.00;100.00;99511.41;4904678;29;10954;-67
2024/01/02 01:21:02;;;;;;;;;7.00;4.25;;;;;7.04;99.91;99500.09;4893456;29;10936;-68
2024/01/02 01:23:29;;;;;;;;;1.00;1.00;;;;;6.98;99.15;99497.44;4892429;29;10883;-67
2024/01/02 01:25:56;;;;;;;;;2.00;1.00;;;;;6.99;100.00;99491.06;4892831;29;10879;-68
2024/01/02 01:28:22;;;;;;;;;2.50;2.00;;;;;6.91;100.00;99474.16;4895903;29;10713;-66
2024/01/02 01:30:49;;;;;;;;;5.00;1.00;;;;;6.91;100.00;99468.81;4895341;29;10876;-68
2024/01/02 01:33:16;;;;;;;;;1.00;1.00;;;;;6.92;100.00;99446.38;4892909;29;11788;-68
2024/01/02 01:35:43;;;;;;;;;1.25;1.25;;;;;7.03;100.00;99444.94;4895260;29;10608;-66
2024/01/02 01:38:09;;;;;;;;;4.50;1.50;;;;;7.03;100.00;99438.78;4896731;29;11233;-68
2024/01/02 01:40:36;;;;;;;;;6.50;1.75;;;;;6.99;100.00;99429.50;4893713;29;10764;-68
2024/01/02 01:43:11;;;;;;;;;3.25;1.25;;;;;7.04;100.00;99427.03;4908822;29;10988;-65
2024/01/02 01:45:38;;;;;;;;;3.00;2.50;;;;;7.01;100.00;99417.59;4887326;29;10793;-66
2024/01/02 01:48:07;;;;;;;;;1.00;1.00;;;;;7.07;100.00;99399.88;4894620;29;10836;-65
2024/01/02 01:50:35;;;;;;;;;2.00;2.00;;;;;7.03;100.00;99393.28;4886349;29;10763;-65
2024/01/02 01:53:03;;;;;;;;;1.25;1.25;;;;;6.98;100.00;99387.75;4891756;29;10728;-65
2024/01/02 01:55:30;;;;;;;;;0.25;0.25;;;;;7.00;100.00;99383.81;4888602;29;11555;-66
2024/01/02 01:57:57;;;;;;;;;2.00;1.00;;;;;7.02;100.00;99371.06;4893748;29;10663;-65
2024/01/02 02:00:24;;;;;;;;;1.25;1.25;;;;;7.07;100.00;99351.72;4909572;29;11398;-65
2024/01/02 02:02:51;;;;;;;;;2.00;1.75;;;;;7.08;100.00;99335.44;4892710;29;10939;-65
2024/01/02 02:05:21;;;;;;;;;4.50;3.00;;;;;7.09;100.00;99341.63;4895225;29;10814;-66
2024/01/02 02:07:48;;;;;;;;;2.25;1.00;;;;;7.09;100.00;99325.56;4899481;29;11040;-65
2024/01/02 02:10:15;;;;;;;;;1.25;1.25;;;;;7.10;100.00;99319.19;4894746;29;10732;-66
2024/01/02 02:12:42;;;;;;;;;0.00;0.00;;;;;7.04;100.00;99296.75;4892644;29;10626;-65
2024/01/02 02:15:09;;;;;;;;;0.00;0.00;;;;;7.12;100.00;99298.41;4894693;29;10720;-66
2024/01/02 02:17:43;;;;;;;;;0.50;0.50;;;;;7.12;100.00;99290.38;4887430;29;10570;-65
2024/01/02 02:20:10;;;;;;;;;0.00;0.00;;;;;7.13;100.00;99292.00;4891221;29;10592;-66
2024/01/02 02:22:38;;;;;;;;;1.00;1.00;;;;;7.11;100.00;99280.69;4907931;29;10692;-65
2024/01/02 02:25:06;;;;;;;;;1.00;1.00;;;;;7.19;100.00;99281.28;4893600;29;10530;-65
2024/01/02 02:27:33;;;;;;;;;1.50;0.00;;;;;7.21;100.00;99266.88;4908732;29;10500;-66
2024/01/02 02:30:00;;;;;;;;;0.00;0.00;;;;;7.17;100.00;99272.66;4887552;29;10471;-66
2024/01/02 02:32:27;;;;;;;;;1.00;0.00;;;;;7.18;100.00;99260.94;4885220;29;10656;-65
2024/01/02 02:34:54;;;;;;;;;4.00;4.00;;;;;7.21;100.00;99248.13;4894136;29;10726;-64
2024/01/02 02:37:21;;;;;;;;;0.00;0.00;;;;;7.17;100.00;99235.19;4885683;29;10751;-67
2024/01/02 02:39:47;;;;;;;;;0.00;0.00;;;;;7.21;100.00;99214.19;4894850;29;10783;-66
2024/01/02 02:42:14;;;;;;;;;0.00;0.00;;;;;7.26;100.00;99200.19;4883058;29;10594;-66
2024/01/02 02:44:42;;;;;;;;;0.00;0.00;;;;;7.31;100.00;99200.34;4910375;29;10564;-65
2024/01/02 02:47:09;;;;;;;;;0.00;0.00;;;;;7.26;100.00;99178.75;4900289;29;10549;-66
2024/01/02 02:49:37;;;;;;;;;1.00;1.00;;;;;7.22;100.00;99156.97;4894036;29;11189;-66
2024/01/02 02:52:04;;;;;;;;;2.00;2.00;;;;;7.20;100.00;99145.63;4885131;29;10599;-66
2024/01/02 02:54:31;;;;;;;;;0.00;0.00;;;;;7.15;100.00;99135.56;4902298;29;10548;-66
2024/01/02 02:56:58;;;;;;;;;0.00;0.00;;;;;7.22;100.00;99140.91;4899226;29;10703;-66
2024/01/02 02:59:25;;;;;;;;;0.00;0.00;;;;;7.16;100.00;99131.84;4901578;29;10612;-67
2024/01/02 03:01:52;;;;;;;;;0.00;0.00;;;;;7.20;100.00;99116.19;4893249;29;10635;-66
2024/01/02 03:04:19;;;;;;;;;0.00;0.00;;;;;7.21;100.00;99108.97;4886710;29;10545;-65
2024/01/02 03:06:45;;;;;;;;;4.00;0.00;;;;;7.27;100.00;99097.44;4900582;29;10591;-67
2024/01/02 03:09:12;;;;;;;;;0.00;0.00;;;;;7.26;100.00;99079.75;4895391;29;10441;-65
2024/01/02 03:11:38;;;;;;;;;0.00;0.00;;;;;7.27;100.00;99060.78;4892618;29;10695;-65
2024/01/02 03:14:05;;;;;;;;;0.00;0.00;;;;;7.33;100.00;99057.25;4909361;29;11367;-65
2024/01/02 03:16:32;;;;;;;;;0.00;0.00;;;;;7.27;100.00;99058.09;4905365;29;10544;-67
2024/01/02 03:18:58;;;;;;;;;0.00;0.00;;;;;7.29;100.00;99045.34;4893167;29;10751;-65
2024/01/02 03:21:28;;;;;;;;;0.00;0.00;;;;;7.33;100.00;99032.31;4892839;29;10636;-65
2024/01/02 03:23:55;;;;;;;;;0.50;0.00;;;;;7.29;100.00;99028.44;4884858;29;10782;-66
2024/01/02 03:26:22;;;;;;;;;0.00;0.00;;;;;7.28;100.00;99021.44;4899312;29;10532;-65
2024/01/02 03:28:48;;;;;;;;;0.00;0.00;;;;;7.28;100.00;99013.44;4893079;29;10713;-65
2024/01/02 03:31:15;;;;;;;;;0.00;0.00;;;;;7.34;100.00;99015.25;4889635;29;10509;-65
2024/01/02 03:33:42;;;;;;;;;0.00;0.00;;;;;7.31;100.00;98997.75;4888699;29;10530;-65
2024/01/02 03:36:13;;;;;;;;;0.00;0.00;;;;;7.36;100.00;99021.19;4892583;29;10500;-66
2024/01/02 03:38:39;;;;;;;;;0.00;0.00;;;;;7.36;100.00;99007.81;4902449;29;10446;-66
2024/01/02 03:41:06;;;;;;;;;0.00;0.00;;;;;7.36;100.00;99013.97;4886997;29;10394;-65
2024/01/02 03:43:34;;;;;;;;;0.00;0.00;;;;;7.36;100.00;98997.91;4893121;29;10813;-66
2024/01/02 03:46:00;;;;;;;;;0.00;0.00;;;;;7.36;100.00;99008.63;4891075;29;11299;-69
2024/01/02 03:48:27;;;;;;;;;0.00;0.00;;;;;7.34;100.00;98996.50;4882673;29;10535;-66
2024/01/02 03:50:53;;;;;;;;;0.00;0.00;;;;;7.35;100.00;98992.78;4901150;29;10691;-66
2024/01/02 03:53:20;;;;;;;;;0.00;0.00;;;;;7.38;100.00;99003.06;4904064;29;10671;-66
2024/01/02 03:55:47;;;;;;;;;0.00;0.00;;;;;7.42;100.00;98990.88;4892079;29;11293;-67
2024/01/02 03:58:14;;;;;;;;;0.00;0.00;;;;;7.47;100.00;98987.53;4894136;29;10560;-66
2024/01/02 04:00:40;;;;;;;;;0.00;0.00;;;;;7.44;100.00;98978.09;4888974;29;10595;-66
2024/01/02 04:03:07;;;;;;;;;0.00;0.00;;;;;7.49;100.00;98977.41;4889344;29;10459;-67
2024/01/02 04:05:34;;;;;;;;;0.00;0.00;;;;;7.51;100.00;98972.69;4893829;29;10555;-67
2024/01/02 04:08:01;;;;;;;;;0.00;0.00;;;;;7.61;100.00;98962.28;4891891;29;10476;-66
2024/01/02 04:10:27;;;;;;;;;0.00;0.00;;;;;7.55;100.00;98957.81;4906434;29;10500;-67
2024/01/02 04:12:54;;;;;;;;;0.00;0.00;;;;;7.63;100.00;98954.84;4904744;29;11294;-65
2024/01/02 04:15:20;;;;;;;;;0.00;0.00;;;;;7.63;100.00;98957.53;4886151;29;10423;-66
2024/01/02 04:17:47;;;;;;;;;0.00;0.00;;;;;7.60;100.00;98952.59;4894001;29;10472;-65
2024/01/02 04:20:14;;;;;;;;;0.00;0.00;;;;;7.57;100.00;98948.50;4893617;29;10439;-66
2024/01/02 04:22:40;;;;;;;;;0.00;0.00;;;;;7.60;100.00;98939.22;4895341;29;10408;-65
2024/01/02 04:25:08;;;;;;;;;0.00;0.00;;;;;7.64;100.00;98948.44;4907374;29;10611;-66
2024/01/02 04:27:34;;;;;;;;;0.00;0.00;;;;;7.68;100.00;98945.09;4887624;29;10708;-65
2024/01/02 04:30:01;;;;;;;;;0.00;0.00;;;;;7.71;100.00;98938.50;4875400;29;10605;-66
2024/01/02 04:32:27;;;;;;;;;0.00;0.00;;;;;7.73;100.00;98933.72;4890192;29;11112;-65
2024/01/02 04:34:54;;;;;;;;;0.00;0.00;;;;;7.72;100.00;98929.41;4891052;29;10444;-67
2024/01/02 04:37:21;;;;;;;;;0.00;0.00;;;;;7.74;100.00;98924.66;4883712;29;10419;-65
2024/01/02 04:39:48;;;;;;;;;0.75;0.00;;;;;7.83;100.00;98923.31;4893328;29;10491;-66
2024/01/02 04:42:14;;;;;;;;;0.00;0.00;;;;;7.83;100.00;98917.97;4886165;29;10569;-65
2024/01/02 04:44:41;;;;;;;;;1.50;0.00;;;;;7.86;100.00;98909.47;4904837;29;11036;-66
2024/01/02 04:47:08;;;;;;;;;0.00;0.00;;;;;7.88;100.00;98912.75;4888972;29;10388;-66
2024/01/02 04:49:34;;;;;;;;;0.00;0.00;;;;;7.96;100.00;98911.63;4892348;29;10440;-65
2024/01/02 04:52:01;;;;;;;;;0.00;0.00;;;;;7.95;100.00;98907.31;4882573;29;11137;-66
2024/01/02 04:54:27;;;;;;;;;0.00;0.00;;;;;7.98;100.00;98906.88;4901650;29;10484;-66
2024/01/02 04:56:54;;;;;;;;;0.25;0.00;;;;;7.98;100.00;98903.34;4885945;29;11034;-65
2024/01/02 04:59:21;;;;;;;;;0.00;0.00;;;;;8.01;100.00;98903.72;4905198;29;10437;-65
2024/01/02 05:01:47;;;;;;;;;0.50;0.50;;;;;8.07;100.00;98902.84;4893492;29;10474;-66
2024/01/02 05:04:14;;;;;;;;;0.00;0.00;;;;;8.11;100.00;98893.31;4896025;29;10552;-65
2024/01/02 05:06:40;;;;;;;;;0.00;0.00;;;;;8.10;100.00;98906.91;4894417;29;10569;-65
2024/01/02 05:09:08;;;;;;;;;0.00;0.00;;;;;8.12;100.00;98902.97;4895657;29;10513;-66
2024/01/02 05:11:38;;;;;;;;;0.00;0.00;;;;;8.17;100.00;98897.75;4889323;29;10510;-66
2024/01/02 05:14:05;;;;;;;;;1.00;1.00;;;;;8.18;100.00;98893.19;4917762;29;10403;-67
2024/01/02 05:16:32;;;;;;;;;1.00;1.00;;;;;8.26;100.00;98895.56;4894832;29;10434;-66
2024/01/02 05:18:59;;;;;;;;;0.00;0.00;;;;;8.34;100.00;98897.94;4909078;29;11162;-65
2024/01/02 05:21:27;;;;;;;;;1.00;1.00;;;;;8.33;100.00;98907.03;4892090;29;10426;-67
2024/01/02 05:23:53;;;;;;;;;1.00;1.00;;;;;8.41;100.00;98914.78;4891218;29;10547;-67
2024/01/02 05:26:20;;;;;;;;;0.00;0.00;;;;;8.49;100.00;98919.00;4888673;29;10516;-66
2024/01/02 05:28:47;;;;;;;;;1.75;1.75;;;;;8.48;100.00;98912.00;4897249;29;10180;-65
2024/01/02 05:31:13;;;;;;;;;1.00;1.00;;;;;8.57;100.00;98912.50;4910406;29;10522;-65
2024/01/02 05:33:40;;;;;;;;;0.25;0.25;;;;;8.63;100.00;98917.78;4893765;29;10364;-66
2024/01/02 05:36:09;;;;;;;;;0.50;0.00;;;;;8.66;100.00;98906.56;4905918;29;10364;-65
2024/01/02 05:38:36;;;;;;;;;0.75;0.75;;;;;8.71;100.00;98905.91;4889754;29;10609;-66
2024/01/02 05:41:03;;;;;;;;;1.00;1.00;;;;;8.79;100.00;98891.31;4888854;29;10267;-65
2024/01/02 05:43:29;;;;;;;;;2.00;1.00;;;;;8.79;100.00;98894.84;4888844;29;10455;-65
2024/01/02 05:45:56;;;;;;;;;0.00;0.00;;;;;8.90;100.00;98907.44;4893058;29;10349;-65
2024/01/02 05:48:22;;;;;;;;;0.75;0.75;;;;;8.97;100.00;98904.66;4891786;29;10377;-67
2024/01/02 05:50:49;;;;;;;;;1.25;1.25;;;;;9.00;100.00;98917.63;4908704;29;10215;-66
2024/01/02 05:53:16;;;;;;;;;1.00;0.00;;;;;9.10;100.00;98922.41;4905213;29;10990;-66
2024/01/02 05:55:43;;;;;;;;;1.50;0.25;;;;;9.15;100.00;98927.91;4894472;29;10152;-66
2024/01/02 05:58:09;;;;;;;;;0.00;0.00;;;;;9.22;100.00;98928.63;4892651;29;10051;-67
2024/01/02 06:00:36;;;;;;;;;1.00;1.00;;;;;9.30;100.00;98928.25;4885385;29;10203;-66
2024/01/02 06:03:03;;;;;;;;;1.75;0.00;;;;;9.34;100.00;98934.81;4895997;29;10214;-65
2024/01/02 06:05:29;;;;;;;;;3.00;1.50;;;;;9.44;100.00;98944.13;4895678;29;10219;-67
2024/01/02 06:07:56;;;;;;;;;1.50;0.00;;;;;9.48;100.00;98954.22;4909221;29;10129;-66
2024/01/02 06:10:23;;;;;;;;;0.00;0.00;;;;;9.57;100.00;98944.75;4894687;29;10131;-66
2024/01/02 06:12:49;;;;;;;;;1.00;1.00;;;;;9.55;100.00;98943.31;4894962;29;9934;-66
2024/01/02 06:15:16;;;;;;;;;3.00;1.75;;;;;9.55;100.00;98951.38;4894682;29;9930;-66
2024/01/02 06:17:45;;;;;;;;;2.25;2.25;;;;;9.64;100.00;98952.66;4908964;29;10147;-65
2024/01/02 06:20:12;;;;;;;;;2.50;1.00;;;;;9.65;100.00;98957.81;4909144;29;10040;-66
2024/01/02 06:22:39;;;;;;;;;0.25;0.00;;;;;9.64;100.00;98958.88;4902473;29;10095;-66
2024/01/02 06:25:09;;;;;;;;;0.50;0.50;;;;;9.64;100.00;98958.88;4891773;29;10050;-66
2024/01/02 06:27:36;;;;;;;;;5.25;1.75;;;;;9.69;100.00;98963.53;4910823;29;10272;-66
2024/01/02 06:30:04;;;;;;;;;2.00;1.00;;;;;9.74;100.00;98974.41;4890063;29;10074;-66
2024/01/02 06:32:31;;;;;;;;;1.00;1.00;;;;;9.70;100.00;98969.72;4894671;29;9945;-65
2024/01/02 06:34:58;;;;;;;;;4.75;2.50;;;;;9.69;100.00;98981.53;4910767;29;10128;-67
2024/01/02 06:37:25;;;;;;;;;2.25;0.00;;;;;9.70;100.00;98975.09;4893746;29;10188;-67
2024/01/02 06:39:51;;;;;;;;;1.00;1.00;;;;;9.75;100.00;98988.66;4887192;29;10091;-66
2024/01/02 06:42:18;;;;;;;;;0.25;0.25;;;;;9.70;100.00;98985.84;4890302;29;10053;-67
2024/01/02 06:44:46;;;;;;;;;1.75;1.00;;;;;9.72;100.00;98983.72;4893491;29;9967;-65
2024/01/02 06:47:13;;;;;;;;;2.25;0.00;;;;;9.76;100.00;98980.34;4886869;29;10028;-66
2024/01/02 06:49:39;;;;;;;;;1.25;0.75;;;;;9.77;100.00;98991.94;4886837;29;9956;-65
2024/01/02 06:52:06;;;;;;;;;1.00;1.00;;;;;9.78;100.00;99007.81;4898347;29;9854;-65
2024/01/02 06:54:33;;;;;;;;;1.00;1.00;;;;;9.76;100.00;99009.91;4892666;29;9981;-66
2024/01/02 06:56:59;;;;;;;;;1.00;1.00;;;;;9.79;100.00;99014.00;4891679;29;9855;-66
2024/01/02 06:59:26;;;;;;;;;1.75;0.75;;;;;9.78;100.00;99020.44;4891181;29;10075;-67
2024/01/02 07:01:52;;;;;;;;;1.00;1.00;;;;;9.77;100.00;99030.38;4899507;29;10065;-67
2024/01/02 07:04:19;;;;;;;;;5.00;1.50;;;;;9.82;100.00;99033.16;4890662;29;9929;-65
2024/01/02 07:06:45;;;;;;;;;1.00;1.00;;;;;9.89;100.00;99033.06;4895401;29;10736;-65
2024/01/02 07:09:12;;;;;;;;;1.25;0.00;;;;;9.89;100.00;99033.88;4913635;29;9967;-65
2024/01/02 07:11:39;;;;;;;;;2.75;2.00;;;;;9.89;100.00;99027.69;4912452;29;10072;-68
2024/01/02 07:14:05;;;;;;;;;2.00;2.00;;;;;9.82;100.00;99029.66;4906232;29;10074;-67
2024/01/02 07:16:32;;;;;;;;;3.25;1.75;;;;;9.82;100.00;99038.53;4910997;29;10168;-67
2024/01/02 07:18:59;;;;;;;;;1.00;1.00;;;;;9.86;100.00;99044.25;4897697;29;9923;-65
2024/01/02 07:21:25;;;;;;;;;1.75;1.50;;;;;9.89;100.00;99050.00;4894102;29;10093;-66
2024/01/02 07:23:52;;;;;;;;;2.75;2.75;;;;;9.88;100.00;99059.13;4900731;29;10043;-66
2024/01/02 07:26:18;;;;;;;;;2.50;0.50;;;;;9.82;100.00;99065.41;4893229;29;10112;-65
2024/01/02 07:28:45;;;;;;;;;1.75;1.00;;;;;9.85;100.00;99075.69;4896285;29;10721;-67
2024/01/02 07:31:12;;;;;;;;;1.00;0.00;;;;;9.89;100.00;99079.56;4913022;29;10108;-67
2024/01/02 07:33:38;;;;;;;;;2.00;2.00;;;;;9.83;100.00;99075.09;4912093;29;10173;-66
2024/01/02 07:36:06;;;;;;;;;3.75;2.00;;;;;9.87;100.00;99078.97;4913579;29;10153;-64
2024/01/02 07:38:33;;;;;;;;;1.50;1.25;;;;;9.86;100.00;99088.06;4913331;29;10158;-65
2024/01/02 07:41:00;;;;;;;;;1.00;1.00;;;;;9.85;100.00;99085.63;4912049;29;10051;-66
2024/01/02 07:43:28;;;;;;;;;2.00;2.00;;;;;9.89;100.00;99090.31;4913927;29;9935;-65
2024/01/02 07:45:55;;;;;;;;;1.00;1.00;;;;;9.85;100.00;99085.63;4911590;29;9869;-65
2024/01/02 07:48:22;;;;;;;;;2.75;2.00;;;;;9.89;100.00;99090.31;4927331;29;9854;-65
2024/01/02 07:50:49;;;;;;;;;2.00;1.00;;;;;9.79;100.00;99098.09;4875240;29;10056;-65
2024/01/02 07:53:20;;;;;;;;;3.50;0.75;;;;;9.83;100.00;99104.66;4876165;29;9968;-68
2024/01/02 07:55:47;;;;;;;;;3.50;1.00;;;;;9.86;100.00;99114.13;4876099;29;9937;-66
2024/01/02 07:58:14;;;;;;;;;2.00;2.00;;;;;9.85;100.00;99105.25;4875839;29;10054;-66
2024/01/02 08:00:41;;;;;;;;;1.50;1.50;;;;;9.89;100.00;99111.00;4911729;29;9963;-65
2024/01/02 08:03:09;;;;;;;;;3.75;3.00;;;;;9.92;100.00;99110.50;4913000;29;9949;-65
2024/01/02 08:05:36;;;;;;;;;3.00;1.00;;;;;9.94;100.00;99110.28;4911880;29;10157;-66
2024/01/02 08:08:04;;;;;;;;;2.50;1.00;;;;;9.90;100.00;99113.44;4912979;29;10002;-67
2024/01/02 08:10:32;;;;;;;;;1.00;1.00;;;;;10.00;100.00;99095.91;4897672;29;9806;-66
2024/01/02 08:12:58;;;;;;;;;7.50;5.50;;;;;9.93;100.00;99106.78;4893897;29;9823;-65
2024/01/02 08:15:25;;;;;;;;;2.75;2.00;;;;;10.00;100.00;99103.97;4893910;29;9941;-67
2024/01/02 08:18:06;;;;;;;;;2.25;2.25;;;;;10.00;100.00;99099.41;4893937;29;9941;-66
2024/01/02 08:20:33;;;;;;;;;2.00;2.00;;;;;10.04;100.00;99099.75;4909707;29;9968;-65
2024/01/02 08:23:00;;;;;;;;;6.25;3.00;;;;;10.06;100.00;99093.13;4912278;29;9869;-66
2024/01/02 08:25:27;;;;;;;;;2.00;1.00;;;;;10.13;100.00;99101.06;4912528;29;10145;-66
2024/01/02 08:27:53;;;;;;;;;3.75;2.00;;;;;10.16;100.00;99098.72;4898726;29;10062;-66
2024/01/02 08:30:20;;;;;;;;;3.00;3.00;;;;;10.15;100.00;99096.25;4922388;29;9977;-65
2024/01/02 08:32:47;;;;;;;;;3.00;1.00;;;;;10.15;100.00;99097.09;4910619;29;10054;-65
2024/01/02 08:35:13;;;;;;;;;4.50;3.25;;;;;10.13;100.00;99088.44;4911801;29;9900;-67
2024/01/02 08:37:41;;;;;;;;;2.00;1.00;;;;;10.13;100.00;99091.13;4897854;29;10749;-65
2024/01/02 08:40:09;;;;;;;;;2.00;1.00;;;;;10.19;100.00;99088.56;4905783;29;9942;-67
2024/01/02 08:42:37;;;;;;;;;2.25;0.75;;;;;10.15;100.00;99082.81;4907790;29;10227;-66
2024/01/02 08:45:04;;;;;;;;;2.50;2.00;;;;;10.19;100.00;99078.63;4893461;29;9874;-65
2024/01/02 08:47:33;;;;;;;;;4.75;2.00;;;;;10.22;100.00;99080.84;4910244;29;10693;-67
2024/01/02 08:50:00;;;;;;;;;7.50;6.00;;;;;10.22;100.00;99074.66;4912311;29;10055;-67
2024/01/02 08:52:27;;;;;;;;;5.50;2.00;;;;;10.21;100.00;99083.75;4910129;29;10140;-66
2024/01/02 08:54:54;;;;;;;;;1.50;1.00;;;;;10.24;100.00;99078.72;4893301;29;10017;-67
2024/01/02 08:57:20;;;;;;;;;1.75;1.75;;;;;10.29;100.00;99073.50;4893464;29;10011;-67
2024/01/02 08:59:47;;;;;;;;;3.00;3.00;;;;;10.33;100.00;99077.34;4899896;29;9947;-66
2024/01/02 09:02:14;;;;;;;;;2.25;1.00;;;;;10.36;100.00;99076.06;4911669;29;9773;-67
2024/01/02 09:04:43;;;;;;;;;2.50;1.50;;;;;10.35;100.00;99075.22;4911769;29;9868;-65
2024/01/02 09:07:09;;;;;;;;;2.50;1.50;;;;;10.31;100.00;99081.31;4910766;29;9954;-66
2024/01/02 09:09:36;;;;;;;;;2.25;2.25;;;;;10.39;100.00;99081.78;4910685;29;9962;-66
2024/01/02 09:12:03;;;;;;;;;2.00;1.00;;;;;10.44;100.00;99077.56;4926112;29;9834;-66
2024/01/02 09:14:29;;;;;;;;;3.00;2.00;;;;;10.49;100.00;99072.28;4894564;29;9706;-65
2024/01/02 09:16:56;;;;;;;;;5.00;4.00;;;;;10.49;100.00;99069.59;4921747;29;9805;-65
2024/01/02 09:19:23;;;;;;;;;1.25;1.25;;;;;10.51;100.00;99076.38;4912302;29;10713;-66
2024/01/02 09:21:50;;;;;;;;;6.50;2.50;;;;;10.48;100.00;99074.16;4911914;29;9929;-66
2024/01/02 09:24:18;;;;;;;;;6.25;3.00;;;;;10.44;100.00;99069.50;4908174;29;9920;-66
2024/01/02 09:26:47;;;;;;;;;2.50;1.75;;;;;10.47;100.00;99072.53;4874800;29;10252;-66
2024/01/02 09:29:14;;;;;;;;;3.75;2.25;;;;;10.50;100.00;99071.25;4874835;29;9806;-65
2024/01/02 09:31:41;;;;;;;;;3.00;3.00;;;;;10.51;100.00;99072.88;4879155;29;9968;-66
2024/01/02 09:34:08;;;;;;;;;1.00;1.00;;;;;10.45;100.00;99079.19;4905942;29;10083;-67
2024/01/02 09:36:36;;;;;;;;;4.50;2.25;;;;;10.51;100.00;99078.25;4911823;29;9957;-66
2024/01/02 09:39:03;;;;;;;;;4.75;3.00;;;;;10.50;100.00;99071.25;4911787;29;9882;-65
2024/01/02 09:41:54;;;;;;;;;3.25;3.25;;;;;10.54;100.00;99067.03;4909969;29;9921;-68
2024/01/02 09:44:52;;;;;;;;;2.00;0.00;;;;;10.64;100.00;99072.59;4911746;29;10792;-65
2024/01/02 09:47:38;;;;;;;;;2.50;0.75;;;;;10.64;100.00;99065.34;4911125;29;9798;-66
2024/01/02 09:50:27;;;;;;;;;5.25;1.50;;;;;10.66;100.00;99070.50;4914037;29;9811;-66
2024/01/02 09:53:21;;;;;;;;;2.00;2.00;;;;;10.64;100.00;99064.53;4911499;29;9790;-66
2024/01/02 09:55:56;;;;;;;;;7.00;3.25;;;;;10.66;100.00;99081.28;4896438;29;9971;-67
2024/01/02 09:58:41;;;;;;;;;6.50;5.25;;;;;10.66;100.00;99078.59;4896470;29;10540;-65
2024/01/02 10:01:32;;;;;;;;;3.50;3.50;;;;;10.62;100.00;99074.72;4912179;29;9890;-66
2024/01/02 10:04:19;;;;;;;;;2.00;2.00;;;;;10.66;100.00;99081.28;4910030;29;9792;-66
2024/01/02 10:07:14;;;;;;;;;5.00;2.75;;;;;10.70;100.00;99085.13;4910217;29;9728;-65
2024/01/02 10:09:55;;;;;;;;;5.50;3.75;;;;;10.72;100.00;99084.88;4895844;29;9836;-65
2024/01/02 10:12:41;;;;;;;;;5.00;2.75;;;;;10.70;100.00;99070.84;4895705;29;10431;-67
2024/01/02 10:15:25;;;;;;;;;9.75;4.50;;;;;10.68;100.00;99076.47;4910156;29;9889;-65
2024/01/02 10:18:03;;;;;;;;;5.00;4.50;;;;;10.71;100.00;99067.09;4891187;29;10627;-66
2024/01/02 10:20:51;;;;;;;;;6.25;4.00;;;;;10.75;100.00;99076.34;4890876;29;10004;-67
2024/01/02 10:23:32;;;;;;;;;3.00;1.50;;;;;10.73;100.00;99068.47;4883371;29;9810;-66
2024/01/02 10:26:02;;;;;;;;;2.00;2.00;;;;;10.76;100.00;99069.88;4909916;29;9912;-67
2024/01/02 10:28:28;;;;;;;;;4.00;2.50;;;;;10.74;100.00;99072.00;4895333;29;9803;-65
2024/01/02 10:30:58;;;;;;;;;6.25;5.00;;;;;10.77;100.00;99068.81;4895351;29;10081;-66
2024/01/02 10:33:42;;;;;;;;;6.25;6.25;;;;;10.75;100.00;99065.56;4899342;29;9994;-66
2024/01/02 10:36:10;;;;;;;;;4.50;2.00;;;;;10.79;100.00;99061.34;4895527;29;10060;-65
2024/01/02 10:39:05;;;;;;;;;4.00;2.75;;;;;10.82;100.00;99060.88;4895030;29;9824;-67
2024/01/02 10:41:57;;;;;;;;;6.25;4.00;;;;;10.85;100.00;99061.19;4909001;29;10719;-65
2024/01/02 10:44:49;;;;;;;;;5.50;3.25;;;;;10.85;100.00;99052.28;4909059;29;9973;-66
2024/01/02 10:47:39;;;;;;;;;7.25;5.50;;;;;10.86;100.00;99041.31;4909276;29;9794;-67
2024/01/02 10:50:14;;;;;;;;;2.00;2.00;;;;;10.85;100.00;99036.13;4909520;29;9806;-66
2024/01/02 10:53:13;;;;;;;;;6.50;3.00;;;;;10.85;100.00;99026.19;4909323;29;9875;-65
2024/01/02 10:55:55;;;;;;;;;5.75;3.00;;;;;10.83;100.00;99031.00;4892437;29;9867;-67
2024/01/02 10:58:29;;;;;;;;;2.75;2.75;;;;;10.86;100.00;99030.53;4914000;29;10140;-66
2024/01/02 11:01:09;;;;;;;;;6.75;4.25;;;;;10.83;100.00;99020.25;4914414;29;9648;-65
2024/01/02 11:03:58;;;;;;;;;2.75;2.75;;;;;10.89;100.00;99018.44;4912859;29;10044;-68
2024/01/02 11:06:34;;;;;;;;;4.00;1.25;;;;;10.92;100.00;99017.16;4928669;29;9865;-66
2024/01/02 11:09:12;;;;;;;;;8.00;3.00;;;;;10.92;100.00;99003.72;4913968;29;9788;-67
2024/01/02 11:11:40;;;;;;;;;2.75;2.75;;;;;10.95;100.00;98998.66;4913499;29;9980;-65
2024/01/02 11:14:11;;;;;;;;;8.50;5.50;;;;;10.93;100.00;98990.00;4902053;29;9897;-66
2024/01/02 11:16:42;;;;;;;;;5.75;2.25;;;;;10.95;100.00;98984.38;4906297;29;9828;-67
2024/01/02 11:19:13;;;;;;;;;1.75;1.75;;;;;10.98;100.00;98976.66;4895906;29;9777;-65
2024/01/02 11:21:46;;;;;;;;;4.50;3.25;;;;;10.98;100.00;98967.72;4893278;29;10964;-65
2024/01/02 11:24:21;;;;;;;;;2.50;1.00;;;;;11.03;100.00;98960.56;4906373;29;9761;-66
2024/01/02 11:26:51;;;;;;;;;3.00;2.25;;;;;11.01;100.00;98956.47;4913753;29;10005;-65
2024/01/02 11:29:23;;;;;;;;;5.50;3.00;;;;;11.03;100.00;98943.59;4913863;29;9726;-65
2024/01/02 11:31:52;;;;;;;;;6.75;5.00;;;;;11.00;100.00;98946.78;4899048;29;9791;-68
2024/01/02 11:34:48;;;;;;;;;5.50;4.00;;;;;11.02;100.00;98937.41;4907562;29;9803;-67
2024/01/02 11:37:27;;;;;;;;;2.25;1.00;;;;;11.06;100.00;98946.63;4910648;29;9810;-68
2024/01/02 11:40:03;;;;;;;;;2.00;2.00;;;;;11.08;100.00;98936.41;4895353;29;9722;-68
2024/01/02 11:42:49;;;;;;;;;3.00;3.00;;;;;11.09;100.00;98929.16;4920303;29;9718;-68